sensor_id;sensor_type;location;lat;lon;timestamp;P1;durP1;ratioP1;P2;durP2;ratioP2
67841;SDS011;54642;59.126;37.876;2023-07-31T00:01:24;117.03;;;57.13;;
67841;SDS011;54642;59.126;37.876;2023-07-31T00:03:49;68.35;;;29.00;;
67841;SDS011;54642;59.126;37.876;2023-07-31T00:06:15;105.43;;;47.75;;
67841;SDS011;54642;59.126;37.876;2023-07-31T00:08:41;114.00;;;43.40;;
67841;SDS011;54642;59.126;37.876;2023-07-31T00:11:07;131.00;;;53.83;;
67841;SDS011;54642;59.126;37.876;2023-07-31T00:13:33;141.30;;;51.10;;
67841;SDS011;54642;59.126;37.876;2023-07-31T00:15:59;140.95;;;49.65;;
67841;SDS011;54642;59.126;37.876;2023-07-31T00:18:25;156.65;;;54.58;;
67841;SDS011;54642;59.126;37.876;2023-07-31T00:20:50;151.43;;;52.13;;
67841;SDS011;54642;59.126;37.876;2023-07-31T00:23:16;155.98;;;60.65;;
67841;SDS011;54642;59.126;37.876;2023-07-31T00:25:42;163.63;;;62.97;;
67841;SDS011;54642;59.126;37.876;2023-07-31T00:28:08;150.90;;;74.35;;
67841;SDS011;54642;59.126;37.876;2023-07-31T00:30:34;122.85;;;59.85;;
67841;SDS011;54642;59.126;37.876;2023-07-31T00:33:00;41.92;;;16.45;;
67841;SDS011;54642;59.126;37.876;2023-07-31T00:35:26;39.08;;;14.88;;
67841;SDS011;54642;59.126;37.876;2023-07-31T00:37:51;40.47;;;15.32;;
67841;SDS011;54642;59.126;37.876;2023-07-31T00:40:17;39.58;;;16.25;;
67841;SDS011;54642;59.126;37.876;2023-07-31T00:42:43;53.90;;;26.80;;
67841;SDS011;54642;59.126;37.876;2023-07-31T00:45:09;39.95;;;16.30;;
67841;SDS011;54642;59.126;37.876;2023-07-31T00:47:35;48.65;;;23.10;;
67841;SDS011;54642;59.126;37.876;2023-07-31T00:50:01;50.22;;;23.70;;
67841;SDS011;54642;59.126;37.876;2023-07-31T00:52:27;178.55;;;125.97;;
67841;SDS011;54642;59.126;37.876;2023-07-31T00:54:55;189.95;;;135.93;;
67841;SDS011;54642;59.126;37.876;2023-07-31T00:57:21;165.50;;;103.90;;
67841;SDS011;54642;59.126;37.876;2023-07-31T00:59:47;109.65;;;56.22;;
67841;SDS011;54642;59.126;37.876;2023-07-31T01:02:14;72.53;;;32.03;;
67841;SDS011;54642;59.126;37.876;2023-07-31T01:04:41;54.72;;;22.10;;
67841;SDS011;54642;59.126;37.876;2023-07-31T01:07:26;56.13;;;22.75;;
67841;SDS011;54642;59.126;37.876;2023-07-31T01:10:02;50.53;;;19.25;;
67841;SDS011;54642;59.126;37.876;2023-07-31T01:12:35;81.20;;;49.67;;
67841;SDS011;54642;59.126;37.876;2023-07-31T01:17:31;87.70;;;44.90;;
67841;SDS011;54642;59.126;37.876;2023-07-31T01:19:59;126.25;;;55.72;;
67841;SDS011;54642;59.126;37.876;2023-07-31T01:22:31;123.93;;;56.55;;
67841;SDS011;54642;59.126;37.876;2023-07-31T01:28:13;58.95;;;22.40;;
67841;SDS011;54642;59.126;37.876;2023-07-31T01:30:45;60.70;;;22.10;;
67841;SDS011;54642;59.126;37.876;2023-07-31T01:33:17;82.07;;;31.30;;
67841;SDS011;54642;59.126;37.876;2023-07-31T01:35:45;120.03;;;47.58;;
67841;SDS011;54642;59.126;37.876;2023-07-31T01:38:14;68.97;;;24.88;;
67841;SDS011;54642;59.126;37.876;2023-07-31T01:40:43;54.15;;;21.63;;
67841;SDS011;54642;59.126;37.876;2023-07-31T01:43:11;79.72;;;29.25;;
67841;SDS011;54642;59.126;37.876;2023-07-31T01:45:37;106.25;;;37.97;;
67841;SDS011;54642;59.126;37.876;2023-07-31T01:48:03;97.53;;;36.78;;
67841;SDS011;54642;59.126;37.876;2023-07-31T01:50:29;144.40;;;47.33;;
67841;SDS011;54642;59.126;37.876;2023-07-31T01:52:55;153.10;;;50.20;;
67841;SDS011;54642;59.126;37.876;2023-07-31T01:55:21;142.48;;;52.15;;
67841;SDS011;54642;59.126;37.876;2023-07-31T01:57:46;153.95;;;66.63;;
67841;SDS011;54642;59.126;37.876;2023-07-31T02:00:14;146.55;;;59.85;;
67841;SDS011;54642;59.126;37.876;2023-07-31T02:02:40;152.32;;;59.17;;
67841;SDS011;54642;59.126;37.876;2023-07-31T02:05:06;136.43;;;50.92;;
67841;SDS011;54642;59.126;37.876;2023-07-31T02:07:31;142.90;;;48.72;;
67841;SDS011;54642;59.126;37.876;2023-07-31T02:09:57;150.40;;;54.15;;
67841;SDS011;54642;59.126;37.876;2023-07-31T02:12:23;147.80;;;43.83;;
67841;SDS011;54642;59.126;37.876;2023-07-31T02:14:49;162.02;;;48.03;;
67841;SDS011;54642;59.126;37.876;2023-07-31T02:17:15;163.45;;;49.95;;
67841;SDS011;54642;59.126;37.876;2023-07-31T02:19:41;121.88;;;38.80;;
67841;SDS011;54642;59.126;37.876;2023-07-31T02:22:06;131.40;;;47.42;;
67841;SDS011;54642;59.126;37.876;2023-07-31T02:24:32;98.35;;;38.53;;
67841;SDS011;54642;59.126;37.876;2023-07-31T02:26:58;87.80;;;35.33;;
67841;SDS011;54642;59.126;37.876;2023-07-31T02:29:25;104.45;;;43.47;;
67841;SDS011;54642;59.126;37.876;2023-07-31T02:31:51;70.22;;;27.00;;
67841;SDS011;54642;59.126;37.876;2023-07-31T02:34:16;62.00;;;24.38;;
67841;SDS011;54642;59.126;37.876;2023-07-31T02:36:42;67.35;;;22.80;;
67841;SDS011;54642;59.126;37.876;2023-07-31T02:39:08;59.60;;;23.45;;
67841;SDS011;54642;59.126;37.876;2023-07-31T02:41:34;41.42;;;17.50;;
67841;SDS011;54642;59.126;37.876;2023-07-31T02:44:01;41.10;;;16.30;;
67841;SDS011;54642;59.126;37.876;2023-07-31T02:46:26;61.60;;;35.83;;
67841;SDS011;54642;59.126;37.876;2023-07-31T02:48:52;29.63;;;12.98;;
67841;SDS011;54642;59.126;37.876;2023-07-31T02:51:19;35.45;;;18.50;;
67841;SDS011;54642;59.126;37.876;2023-07-31T02:53:47;26.15;;;15.32;;
67841;SDS011;54642;59.126;37.876;2023-07-31T02:56:13;40.28;;;18.30;;
67841;SDS011;54642;59.126;37.876;2023-07-31T02:58:39;50.65;;;21.30;;
67841;SDS011;54642;59.126;37.876;2023-07-31T03:01:05;49.97;;;24.75;;
67841;SDS011;54642;59.126;37.876;2023-07-31T03:03:31;27.38;;;13.13;;
67841;SDS011;54642;59.126;37.876;2023-07-31T03:05:56;18.40;;;8.52;;
67841;SDS011;54642;59.126;37.876;2023-07-31T03:08:23;27.55;;;11.93;;
67841;SDS011;54642;59.126;37.876;2023-07-31T03:10:49;30.10;;;13.35;;
67841;SDS011;54642;59.126;37.876;2023-07-31T03:13:15;25.98;;;12.95;;
67841;SDS011;54642;59.126;37.876;2023-07-31T03:15:44;26.63;;;13.82;;
67841;SDS011;54642;59.126;37.876;2023-07-31T03:18:09;26.23;;;13.50;;
67841;SDS011;54642;59.126;37.876;2023-07-31T03:20:35;30.65;;;15.43;;
67841;SDS011;54642;59.126;37.876;2023-07-31T03:23:01;42.83;;;20.75;;
67841;SDS011;54642;59.126;37.876;2023-07-31T03:25:27;44.58;;;19.67;;
67841;SDS011;54642;59.126;37.876;2023-07-31T03:27:53;37.20;;;19.08;;
67841;SDS011;54642;59.126;37.876;2023-07-31T03:30:19;24.98;;;12.32;;
67841;SDS011;54642;59.126;37.876;2023-07-31T03:32:45;30.73;;;12.60;;
67841;SDS011;54642;59.126;37.876;2023-07-31T03:35:11;31.40;;;15.23;;
67841;SDS011;54642;59.126;37.876;2023-07-31T03:37:37;24.42;;;12.73;;
67841;SDS011;54642;59.126;37.876;2023-07-31T03:40:03;31.38;;;14.02;;
67841;SDS011;54642;59.126;37.876;2023-07-31T03:42:30;42.58;;;16.98;;
67841;SDS011;54642;59.126;37.876;2023-07-31T03:44:56;59.60;;;26.60;;
67841;SDS011;54642;59.126;37.876;2023-07-31T03:47:22;40.53;;;17.63;;
67841;SDS011;54642;59.126;37.876;2023-07-31T03:49:47;37.70;;;14.45;;
67841;SDS011;54642;59.126;37.876;2023-07-31T03:52:14;42.10;;;19.70;;
67841;SDS011;54642;59.126;37.876;2023-07-31T03:54:40;66.78;;;25.50;;
67841;SDS011;54642;59.126;37.876;2023-07-31T03:57:06;111.55;;;40.08;;
67841;SDS011;54642;59.126;37.876;2023-07-31T03:59:31;118.00;;;38.00;;
67841;SDS011;54642;59.126;37.876;2023-07-31T04:01:57;133.55;;;47.03;;
67841;SDS011;54642;59.126;37.876;2023-07-31T04:04:23;125.45;;;40.30;;
67841;SDS011;54642;59.126;37.876;2023-07-31T04:06:49;101.63;;;34.42;;
67841;SDS011;54642;59.126;37.876;2023-07-31T04:09:15;102.65;;;36.92;;
67841;SDS011;54642;59.126;37.876;2023-07-31T04:11:40;96.10;;;35.17;;
67841;SDS011;54642;59.126;37.876;2023-07-31T04:14:06;94.10;;;32.83;;
67841;SDS011;54642;59.126;37.876;2023-07-31T04:16:32;77.22;;;31.35;;
67841;SDS011;54642;59.126;37.876;2023-07-31T04:18:58;82.95;;;38.38;;
67841;SDS011;54642;59.126;37.876;2023-07-31T04:21:24;70.43;;;31.73;;
67841;SDS011;54642;59.126;37.876;2023-07-31T04:23:50;114.90;;;60.40;;
67841;SDS011;54642;59.126;37.876;2023-07-31T04:26:15;125.55;;;50.17;;
67841;SDS011;54642;59.126;37.876;2023-07-31T04:28:41;94.07;;;37.53;;
67841;SDS011;54642;59.126;37.876;2023-07-31T04:31:07;67.93;;;37.30;;
67841;SDS011;54642;59.126;37.876;2023-07-31T04:33:34;45.25;;;19.65;;
67841;SDS011;54642;59.126;37.876;2023-07-31T04:36:00;63.38;;;31.50;;
67841;SDS011;54642;59.126;37.876;2023-07-31T04:38:25;47.00;;;20.60;;
67841;SDS011;54642;59.126;37.876;2023-07-31T04:40:51;50.90;;;20.88;;
67841;SDS011;54642;59.126;37.876;2023-07-31T04:43:17;49.00;;;20.17;;
67841;SDS011;54642;59.126;37.876;2023-07-31T04:45:46;75.25;;;32.05;;
67841;SDS011;54642;59.126;37.876;2023-07-31T04:48:13;92.47;;;44.65;;
67841;SDS011;54642;59.126;37.876;2023-07-31T04:50:39;85.50;;;31.30;;
67841;SDS011;54642;59.126;37.876;2023-07-31T04:53:05;85.10;;;29.42;;
67841;SDS011;54642;59.126;37.876;2023-07-31T04:55:31;102.88;;;34.95;;
67841;SDS011;54642;59.126;37.876;2023-07-31T04:57:58;107.97;;;33.88;;
67841;SDS011;54642;59.126;37.876;2023-07-31T05:00:24;112.13;;;46.03;;
67841;SDS011;54642;59.126;37.876;2023-07-31T05:02:50;102.93;;;40.45;;
67841;SDS011;54642;59.126;37.876;2023-07-31T05:05:16;99.07;;;33.13;;
67841;SDS011;54642;59.126;37.876;2023-07-31T05:07:42;102.93;;;32.92;;
67841;SDS011;54642;59.126;37.876;2023-07-31T05:10:08;92.80;;;32.33;;
67841;SDS011;54642;59.126;37.876;2023-07-31T05:12:34;88.20;;;28.30;;
67841;SDS011;54642;59.126;37.876;2023-07-31T05:15:02;85.75;;;30.88;;
67841;SDS011;54642;59.126;37.876;2023-07-31T05:17:29;89.13;;;27.25;;
67841;SDS011;54642;59.126;37.876;2023-07-31T05:19:55;88.07;;;30.73;;
67841;SDS011;54642;59.126;37.876;2023-07-31T05:22:21;95.05;;;32.28;;
67841;SDS011;54642;59.126;37.876;2023-07-31T05:24:47;80.38;;;28.83;;
67841;SDS011;54642;59.126;37.876;2023-07-31T05:27:13;94.30;;;27.02;;
67841;SDS011;54642;59.126;37.876;2023-07-31T05:29:40;88.47;;;29.85;;
67841;SDS011;54642;59.126;37.876;2023-07-31T05:32:06;86.10;;;29.48;;
67841;SDS011;54642;59.126;37.876;2023-07-31T05:34:32;77.03;;;27.05;;
67841;SDS011;54642;59.126;37.876;2023-07-31T05:36:58;80.18;;;26.05;;
67841;SDS011;54642;59.126;37.876;2023-07-31T05:39:24;88.00;;;27.10;;
67841;SDS011;54642;59.126;37.876;2023-07-31T05:41:50;79.72;;;29.85;;
67841;SDS011;54642;59.126;37.876;2023-07-31T05:44:15;80.97;;;27.15;;
67841;SDS011;54642;59.126;37.876;2023-07-31T05:46:41;80.88;;;26.98;;
67841;SDS011;54642;59.126;37.876;2023-07-31T05:49:07;48.47;;;14.45;;
67841;SDS011;54642;59.126;37.876;2023-07-31T05:51:33;55.60;;;15.55;;
67841;SDS011;54642;59.126;37.876;2023-07-31T05:53:59;50.90;;;16.90;;
67841;SDS011;54642;59.126;37.876;2023-07-31T05:56:24;53.45;;;17.45;;
67841;SDS011;54642;59.126;37.876;2023-07-31T05:58:52;59.17;;;18.35;;
67841;SDS011;54642;59.126;37.876;2023-07-31T06:01:18;77.68;;;21.92;;
67841;SDS011;54642;59.126;37.876;2023-07-31T06:03:44;79.05;;;24.70;;
67841;SDS011;54642;59.126;37.876;2023-07-31T06:06:10;83.88;;;21.17;;
67841;SDS011;54642;59.126;37.876;2023-07-31T06:08:36;68.07;;;15.98;;
67841;SDS011;54642;59.126;37.876;2023-07-31T06:11:02;68.72;;;25.13;;
67841;SDS011;54642;59.126;37.876;2023-07-31T06:13:28;45.17;;;14.90;;
67841;SDS011;54642;59.126;37.876;2023-07-31T06:15:54;50.70;;;15.45;;
67841;SDS011;54642;59.126;37.876;2023-07-31T06:18:20;48.40;;;16.05;;
67841;SDS011;54642;59.126;37.876;2023-07-31T06:20:46;33.28;;;13.20;;
67841;SDS011;54642;59.126;37.876;2023-07-31T06:23:12;36.40;;;15.23;;
67841;SDS011;54642;59.126;37.876;2023-07-31T06:25:49;30.27;;;16.58;;
67841;SDS011;54642;59.126;37.876;2023-07-31T06:28:14;30.90;;;12.15;;
67841;SDS011;54642;59.126;37.876;2023-07-31T06:30:40;38.72;;;15.70;;
67841;SDS011;54642;59.126;37.876;2023-07-31T06:33:06;38.10;;;17.52;;
67841;SDS011;54642;59.126;37.876;2023-07-31T06:35:32;89.90;;;42.10;;
67841;SDS011;54642;59.126;37.876;2023-07-31T06:37:58;45.20;;;17.63;;
67841;SDS011;54642;59.126;37.876;2023-07-31T06:40:24;47.90;;;15.52;;
67841;SDS011;54642;59.126;37.876;2023-07-31T06:42:49;33.40;;;15.68;;
67841;SDS011;54642;59.126;37.876;2023-07-31T06:45:15;43.42;;;13.98;;
67841;SDS011;54642;59.126;37.876;2023-07-31T06:47:41;85.22;;;37.85;;
67841;SDS011;54642;59.126;37.876;2023-07-31T06:50:07;58.95;;;20.08;;
67841;SDS011;54642;59.126;37.876;2023-07-31T06:52:33;72.90;;;19.15;;
67841;SDS011;54642;59.126;37.876;2023-07-31T06:55:04;42.75;;;14.32;;
67841;SDS011;54642;59.126;37.876;2023-07-31T06:57:45;55.85;;;18.38;;
67841;SDS011;54642;59.126;37.876;2023-07-31T07:00:12;44.92;;;15.10;;
67841;SDS011;54642;59.126;37.876;2023-07-31T07:02:38;21.10;;;9.18;;
67841;SDS011;54642;59.126;37.876;2023-07-31T07:05:06;42.60;;;16.00;;
67841;SDS011;54642;59.126;37.876;2023-07-31T07:07:32;42.78;;;16.20;;
67841;SDS011;54642;59.126;37.876;2023-07-31T07:09:58;42.95;;;15.07;;
67841;SDS011;54642;59.126;37.876;2023-07-31T07:12:29;13.85;;;7.30;;
67841;SDS011;54642;59.126;37.876;2023-07-31T07:14:55;17.55;;;12.75;;
67841;SDS011;54642;59.126;37.876;2023-07-31T07:17:23;14.52;;;5.97;;
67841;SDS011;54642;59.126;37.876;2023-07-31T07:19:49;12.05;;;4.57;;
67841;SDS011;54642;59.126;37.876;2023-07-31T07:22:15;8.75;;;3.65;;
67841;SDS011;54642;59.126;37.876;2023-07-31T07:24:41;11.35;;;4.20;;
67841;SDS011;54642;59.126;37.876;2023-07-31T07:27:07;11.65;;;3.97;;
67841;SDS011;54642;59.126;37.876;2023-07-31T07:29:35;8.52;;;4.43;;
67841;SDS011;54642;59.126;37.876;2023-07-31T07:32:03;9.43;;;3.70;;
67841;SDS011;54642;59.126;37.876;2023-07-31T07:34:30;10.40;;;6.78;;
67841;SDS011;54642;59.126;37.876;2023-07-31T07:36:55;14.07;;;6.57;;
67841;SDS011;54642;59.126;37.876;2023-07-31T07:39:21;14.95;;;6.60;;
67841;SDS011;54642;59.126;37.876;2023-07-31T07:41:47;14.82;;;6.85;;
67841;SDS011;54642;59.126;37.876;2023-07-31T07:44:13;21.73;;;7.43;;
67841;SDS011;54642;59.126;37.876;2023-07-31T07:46:40;31.55;;;10.38;;
67841;SDS011;54642;59.126;37.876;2023-07-31T07:49:06;9.93;;;4.38;;
67841;SDS011;54642;59.126;37.876;2023-07-31T07:51:32;9.00;;;4.18;;
67841;SDS011;54642;59.126;37.876;2023-07-31T07:54:01;18.10;;;6.70;;
67841;SDS011;54642;59.126;37.876;2023-07-31T07:56:27;20.50;;;8.88;;
67841;SDS011;54642;59.126;37.876;2023-07-31T07:58:53;24.13;;;11.18;;
67841;SDS011;54642;59.126;37.876;2023-07-31T08:01:20;24.30;;;12.63;;
67841;SDS011;54642;59.126;37.876;2023-07-31T08:03:49;22.23;;;10.40;;
67841;SDS011;54642;59.126;37.876;2023-07-31T08:06:15;31.90;;;14.52;;
67841;SDS011;54642;59.126;37.876;2023-07-31T08:08:42;16.80;;;6.45;;
67841;SDS011;54642;59.126;37.876;2023-07-31T08:11:08;16.30;;;7.63;;
67841;SDS011;54642;59.126;37.876;2023-07-31T08:13:33;21.58;;;8.50;;
67841;SDS011;54642;59.126;37.876;2023-07-31T08:16:02;24.23;;;8.15;;
67841;SDS011;54642;59.126;37.876;2023-07-31T08:18:30;22.05;;;9.25;;
67841;SDS011;54642;59.126;37.876;2023-07-31T08:20:56;34.58;;;12.07;;
67841;SDS011;54642;59.126;37.876;2023-07-31T08:23:22;38.00;;;14.50;;
67841;SDS011;54642;59.126;37.876;2023-07-31T08:25:48;47.10;;;18.55;;
67841;SDS011;54642;59.126;37.876;2023-07-31T08:28:16;20.88;;;11.43;;
67841;SDS011;54642;59.126;37.876;2023-07-31T08:30:42;37.28;;;21.05;;
67841;SDS011;54642;59.126;37.876;2023-07-31T08:33:08;36.15;;;17.33;;
67841;SDS011;54642;59.126;37.876;2023-07-31T08:35:34;11.05;;;7.50;;
67841;SDS011;54642;59.126;37.876;2023-07-31T08:37:59;15.93;;;5.63;;
67841;SDS011;54642;59.126;37.876;2023-07-31T08:40:25;29.45;;;10.05;;
67841;SDS011;54642;59.126;37.876;2023-07-31T08:42:55;11.82;;;6.40;;
67841;SDS011;54642;59.126;37.876;2023-07-31T08:45:27;18.55;;;6.53;;
67841;SDS011;54642;59.126;37.876;2023-07-31T08:47:54;18.75;;;8.75;;
67841;SDS011;54642;59.126;37.876;2023-07-31T08:50:22;13.02;;;6.45;;
67841;SDS011;54642;59.126;37.876;2023-07-31T08:52:49;14.93;;;5.85;;
67841;SDS011;54642;59.126;37.876;2023-07-31T08:55:16;9.98;;;4.03;;
67841;SDS011;54642;59.126;37.876;2023-07-31T08:57:42;8.57;;;4.75;;
67841;SDS011;54642;59.126;37.876;2023-07-31T09:00:09;11.88;;;5.15;;
67841;SDS011;54642;59.126;37.876;2023-07-31T09:02:46;9.40;;;5.22;;
67841;SDS011;54642;59.126;37.876;2023-07-31T09:05:17;13.57;;;4.28;;
67841;SDS011;54642;59.126;37.876;2023-07-31T09:07:44;10.13;;;3.88;;
67841;SDS011;54642;59.126;37.876;2023-07-31T09:10:12;10.95;;;4.20;;
67841;SDS011;54642;59.126;37.876;2023-07-31T09:12:38;19.90;;;5.97;;
67841;SDS011;54642;59.126;37.876;2023-07-31T09:15:05;16.77;;;6.50;;
67841;SDS011;54642;59.126;37.876;2023-07-31T09:17:32;20.25;;;6.97;;
67841;SDS011;54642;59.126;37.876;2023-07-31T09:20:20;22.98;;;9.15;;
67841;SDS011;54642;59.126;37.876;2023-07-31T09:22:47;13.93;;;5.95;;
67841;SDS011;54642;59.126;37.876;2023-07-31T09:25:15;15.27;;;5.97;;
67841;SDS011;54642;59.126;37.876;2023-07-31T09:27:54;11.70;;;4.78;;
67841;SDS011;54642;59.126;37.876;2023-07-31T09:30:22;19.67;;;6.78;;
67841;SDS011;54642;59.126;37.876;2023-07-31T09:32:49;17.85;;;8.10;;
67841;SDS011;54642;59.126;37.876;2023-07-31T09:35:28;10.55;;;4.97;;
67841;SDS011;54642;59.126;37.876;2023-07-31T09:37:57;12.07;;;4.55;;
67841;SDS011;54642;59.126;37.876;2023-07-31T09:40:31;12.63;;;5.78;;
67841;SDS011;54642;59.126;37.876;2023-07-31T09:43:00;7.57;;;4.13;;
67841;SDS011;54642;59.126;37.876;2023-07-31T09:45:26;13.32;;;4.78;;
67841;SDS011;54642;59.126;37.876;2023-07-31T09:47:54;12.32;;;6.15;;
67841;SDS011;54642;59.126;37.876;2023-07-31T09:50:21;13.13;;;6.22;;
67841;SDS011;54642;59.126;37.876;2023-07-31T09:52:49;17.45;;;5.70;;
67841;SDS011;54642;59.126;37.876;2023-07-31T09:55:15;9.60;;;3.45;;
67841;SDS011;54642;59.126;37.876;2023-07-31T09:57:43;8.50;;;3.55;;
67841;SDS011;54642;59.126;37.876;2023-07-31T10:00:12;8.68;;;3.78;;
67841;SDS011;54642;59.126;37.876;2023-07-31T10:02:40;6.15;;;2.63;;
67841;SDS011;54642;59.126;37.876;2023-07-31T10:05:07;7.00;;;3.97;;
67841;SDS011;54642;59.126;37.876;2023-07-31T10:07:37;8.55;;;3.35;;
67841;SDS011;54642;59.126;37.876;2023-07-31T10:10:07;8.98;;;4.35;;
67841;SDS011;54642;59.126;37.876;2023-07-31T10:12:36;14.32;;;5.72;;
67841;SDS011;54642;59.126;37.876;2023-07-31T10:15:03;18.83;;;13.40;;
67841;SDS011;54642;59.126;37.876;2023-07-31T10:17:31;20.38;;;11.80;;
67841;SDS011;54642;59.126;37.876;2023-07-31T10:19:58;21.23;;;10.07;;
67841;SDS011;54642;59.126;37.876;2023-07-31T10:22:26;11.30;;;4.07;;
67841;SDS011;54642;59.126;37.876;2023-07-31T10:24:54;22.23;;;13.68;;
67841;SDS011;54642;59.126;37.876;2023-07-31T10:27:25;24.42;;;8.18;;
67841;SDS011;54642;59.126;37.876;2023-07-31T10:29:52;26.15;;;10.23;;
67841;SDS011;54642;59.126;37.876;2023-07-31T10:32:20;11.27;;;5.22;;
67841;SDS011;54642;59.126;37.876;2023-07-31T10:34:47;13.80;;;5.90;;
67841;SDS011;54642;59.126;37.876;2023-07-31T10:39:57;19.88;;;8.93;;
67841;SDS011;54642;59.126;37.876;2023-07-31T10:42:37;19.02;;;7.32;;
67841;SDS011;54642;59.126;37.876;2023-07-31T10:45:10;6.93;;;3.30;;
67841;SDS011;54642;59.126;37.876;2023-07-31T10:47:37;13.52;;;5.53;;
67841;SDS011;54642;59.126;37.876;2023-07-31T10:50:19;13.52;;;5.55;;
67841;SDS011;54642;59.126;37.876;2023-07-31T10:52:50;8.60;;;5.15;;
67841;SDS011;54642;59.126;37.876;2023-07-31T11:00:40;25.00;;;11.48;;
67841;SDS011;54642;59.126;37.876;2023-07-31T11:03:09;22.42;;;13.15;;
67841;SDS011;54642;59.126;37.876;2023-07-31T11:05:44;15.10;;;6.93;;
67841;SDS011;54642;59.126;37.876;2023-07-31T11:08:13;9.75;;;4.95;;
67841;SDS011;54642;59.126;37.876;2023-07-31T11:10:41;14.63;;;6.22;;
67841;SDS011;54642;59.126;37.876;2023-07-31T11:13:08;13.13;;;3.30;;
67841;SDS011;54642;59.126;37.876;2023-07-31T11:15:33;9.07;;;3.45;;
67841;SDS011;54642;59.126;37.876;2023-07-31T11:18:03;7.43;;;3.88;;
67841;SDS011;54642;59.126;37.876;2023-07-31T11:20:31;12.13;;;6.53;;
67841;SDS011;54642;59.126;37.876;2023-07-31T11:23:16;13.70;;;6.32;;
67841;SDS011;54642;59.126;37.876;2023-07-31T11:25:43;13.73;;;6.45;;
67841;SDS011;54642;59.126;37.876;2023-07-31T11:28:10;12.95;;;6.53;;
67841;SDS011;54642;59.126;37.876;2023-07-31T11:30:37;14.52;;;4.40;;
67841;SDS011;54642;59.126;37.876;2023-07-31T11:33:06;9.00;;;4.47;;
67841;SDS011;54642;59.126;37.876;2023-07-31T11:35:33;20.50;;;5.55;;
67841;SDS011;54642;59.126;37.876;2023-07-31T11:38:00;13.95;;;5.22;;
67841;SDS011;54642;59.126;37.876;2023-07-31T11:40:26;18.25;;;4.80;;
67841;SDS011;54642;59.126;37.876;2023-07-31T11:42:59;16.73;;;5.85;;
67841;SDS011;54642;59.126;37.876;2023-07-31T11:45:30;12.32;;;4.38;;
67841;SDS011;54642;59.126;37.876;2023-07-31T11:47:56;26.50;;;7.95;;
67841;SDS011;54642;59.126;37.876;2023-07-31T11:50:25;10.55;;;4.78;;
67841;SDS011;54642;59.126;37.876;2023-07-31T11:52:52;12.68;;;4.35;;
67841;SDS011;54642;59.126;37.876;2023-07-31T11:55:24;8.73;;;4.75;;
67841;SDS011;54642;59.126;37.876;2023-07-31T11:57:52;9.07;;;4.65;;
67841;SDS011;54642;59.126;37.876;2023-07-31T12:00:18;5.30;;;4.38;;
67841;SDS011;54642;59.126;37.876;2023-07-31T12:02:45;22.38;;;15.55;;
67841;SDS011;54642;59.126;37.876;2023-07-31T12:05:13;12.70;;;5.00;;
67841;SDS011;54642;59.126;37.876;2023-07-31T12:07:57;10.77;;;4.88;;
67841;SDS011;54642;59.126;37.876;2023-07-31T12:12:58;8.27;;;3.65;;
67841;SDS011;54642;59.126;37.876;2023-07-31T12:15:42;19.05;;;5.80;;
67841;SDS011;54642;59.126;37.876;2023-07-31T12:18:10;13.60;;;4.93;;
67841;SDS011;54642;59.126;37.876;2023-07-31T12:20:41;12.15;;;4.75;;
67841;SDS011;54642;59.126;37.876;2023-07-31T12:26:10;14.30;;;5.88;;
67841;SDS011;54642;59.126;37.876;2023-07-31T12:28:43;15.00;;;4.80;;
67841;SDS011;54642;59.126;37.876;2023-07-31T12:31:11;12.23;;;4.55;;
67841;SDS011;54642;59.126;37.876;2023-07-31T12:33:45;6.25;;;3.35;;
67841;SDS011;54642;59.126;37.876;2023-07-31T12:36:16;10.73;;;4.63;;
67841;SDS011;54642;59.126;37.876;2023-07-31T12:38:44;6.10;;;4.28;;
67841;SDS011;54642;59.126;37.876;2023-07-31T12:41:10;12.75;;;4.18;;
67841;SDS011;54642;59.126;37.876;2023-07-31T12:43:39;9.57;;;3.67;;
67841;SDS011;54642;59.126;37.876;2023-07-31T12:46:06;15.30;;;8.70;;
67841;SDS011;54642;59.126;37.876;2023-07-31T12:48:33;10.60;;;3.53;;
67841;SDS011;54642;59.126;37.876;2023-07-31T12:50:59;9.65;;;4.30;;
67841;SDS011;54642;59.126;37.876;2023-07-31T12:53:26;10.10;;;5.00;;
67841;SDS011;54642;59.126;37.876;2023-07-31T12:55:53;11.70;;;4.72;;
67841;SDS011;54642;59.126;37.876;2023-07-31T12:58:19;10.05;;;4.68;;
67841;SDS011;54642;59.126;37.876;2023-07-31T13:00:45;7.93;;;3.75;;
67841;SDS011;54642;59.126;37.876;2023-07-31T13:03:10;26.20;;;19.33;;
67841;SDS011;54642;59.126;37.876;2023-07-31T13:05:39;9.45;;;3.33;;
67841;SDS011;54642;59.126;37.876;2023-07-31T13:08:04;18.83;;;7.18;;
67841;SDS011;54642;59.126;37.876;2023-07-31T13:10:30;5.07;;;2.92;;
67841;SDS011;54642;59.126;37.876;2023-07-31T13:12:56;5.88;;;3.45;;
67841;SDS011;54642;59.126;37.876;2023-07-31T13:15:22;5.30;;;4.00;;
67841;SDS011;54642;59.126;37.876;2023-07-31T13:17:49;11.40;;;5.35;;
67841;SDS011;54642;59.126;37.876;2023-07-31T13:20:15;13.90;;;5.25;;
67841;SDS011;54642;59.126;37.876;2023-07-31T13:22:40;7.13;;;4.93;;
67841;SDS011;54642;59.126;37.876;2023-07-31T13:25:07;8.68;;;4.90;;
67841;SDS011;54642;59.126;37.876;2023-07-31T13:27:33;10.98;;;3.75;;
67841;SDS011;54642;59.126;37.876;2023-07-31T13:30:00;9.45;;;3.97;;
67841;SDS011;54642;59.126;37.876;2023-07-31T13:32:26;9.80;;;4.78;;
67841;SDS011;54642;59.126;37.876;2023-07-31T13:34:52;7.50;;;4.38;;
67841;SDS011;54642;59.126;37.876;2023-07-31T13:37:18;9.25;;;3.67;;
67841;SDS011;54642;59.126;37.876;2023-07-31T13:39:46;14.13;;;4.35;;
67841;SDS011;54642;59.126;37.876;2023-07-31T13:42:12;31.13;;;18.70;;
67841;SDS011;54642;59.126;37.876;2023-07-31T13:44:41;12.57;;;7.85;;
67841;SDS011;54642;59.126;37.876;2023-07-31T13:47:08;7.53;;;4.18;;
67841;SDS011;54642;59.126;37.876;2023-07-31T13:49:35;17.23;;;8.80;;
67841;SDS011;54642;59.126;37.876;2023-07-31T13:52:01;21.13;;;10.52;;
67841;SDS011;54642;59.126;37.876;2023-07-31T13:54:28;33.95;;;14.93;;
67841;SDS011;54642;59.126;37.876;2023-07-31T13:56:54;31.42;;;14.95;;
67841;SDS011;54642;59.126;37.876;2023-07-31T13:59:20;26.75;;;13.13;;
67841;SDS011;54642;59.126;37.876;2023-07-31T14:01:46;29.35;;;13.63;;
67841;SDS011;54642;59.126;37.876;2023-07-31T14:04:13;70.03;;;41.90;;
67841;SDS011;54642;59.126;37.876;2023-07-31T14:06:39;17.38;;;8.05;;
67841;SDS011;54642;59.126;37.876;2023-07-31T14:09:05;15.45;;;5.63;;
67841;SDS011;54642;59.126;37.876;2023-07-31T14:11:31;13.90;;;5.53;;
67841;SDS011;54642;59.126;37.876;2023-07-31T14:13:57;17.40;;;8.10;;
67841;SDS011;54642;59.126;37.876;2023-07-31T14:16:23;16.80;;;5.90;;
67841;SDS011;54642;59.126;37.876;2023-07-31T14:18:49;14.35;;;6.30;;
67841;SDS011;54642;59.126;37.876;2023-07-31T14:21:15;14.10;;;6.03;;
67841;SDS011;54642;59.126;37.876;2023-07-31T14:23:44;19.65;;;14.25;;
67841;SDS011;54642;59.126;37.876;2023-07-31T14:26:10;13.35;;;6.65;;
67841;SDS011;54642;59.126;37.876;2023-07-31T14:28:36;21.73;;;7.18;;
67841;SDS011;54642;59.126;37.876;2023-07-31T14:31:02;13.50;;;7.25;;
67841;SDS011;54642;59.126;37.876;2023-07-31T14:33:30;25.50;;;8.52;;